sensor_id;sensor_type;location;lat;lon;timestamp;P1;durP1;ratioP1;P2;durP2;ratioP2
34491;SDS011;20737;49.908;8.126;2022-10-31T00:01:58;18.48;;;9.05;;
34491;SDS011;20737;49.908;8.126;2022-10-31T00:04:25;16.15;;;9.73;;
34491;SDS011;20737;49.908;8.126;2022-10-31T00:06:53;12.95;;;8.35;;
34491;SDS011;20737;49.908;8.126;2022-10-31T00:09:19;12.13;;;8.00;;
34491;SDS011;20737;49.908;8.126;2022-10-31T00:11:46;11.98;;;7.75;;
34491;SDS011;20737;49.908;8.126;2022-10-31T00:14:13;13.45;;;8.15;;
34491;SDS011;20737;49.908;8.126;2022-10-31T00:16:39;12.10;;;8.10;;
34491;SDS011;20737;49.908;8.126;2022-10-31T00:19:07;12.43;;;7.60;;
34491;SDS011;20737;49.908;8.126;2022-10-31T00:21:34;13.27;;;8.38;;
34491;SDS011;20737;49.908;8.126;2022-10-31T00:24:02;11.75;;;7.80;;
34491;SDS011;20737;49.908;8.126;2022-10-31T00:26:30;12.50;;;7.95;;
34491;SDS011;20737;49.908;8.126;2022-10-31T00:28:57;13.48;;;7.85;;
34491;SDS011;20737;49.908;8.126;2022-10-31T00:31:25;13.10;;;7.88;;
34491;SDS011;20737;49.908;8.126;2022-10-31T00:33:51;15.93;;;7.90;;
34491;SDS011;20737;49.908;8.126;2022-10-31T00:36:18;12.95;;;7.32;;
34491;SDS011;20737;49.908;8.126;2022-10-31T00:38:46;12.77;;;7.93;;
34491;SDS011;20737;49.908;8.126;2022-10-31T00:41:15;14.07;;;7.80;;
34491;SDS011;20737;49.908;8.126;2022-10-31T00:43:43;12.20;;;7.40;;
34491;SDS011;20737;49.908;8.126;2022-10-31T00:46:11;13.07;;;9.00;;
34491;SDS011;20737;49.908;8.126;2022-10-31T00:48:38;15.05;;;8.80;;
34491;SDS011;20737;49.908;8.126;2022-10-31T00:51:05;11.82;;;8.13;;
34491;SDS011;20737;49.908;8.126;2022-10-31T00:53:32;11.18;;;7.70;;
34491;SDS011;20737;49.908;8.126;2022-10-31T00:55:59;14.15;;;8.45;;
34491;SDS011;20737;49.908;8.126;2022-10-31T00:58:27;13.68;;;8.32;;
34491;SDS011;20737;49.908;8.126;2022-10-31T01:00:54;10.98;;;7.60;;
34491;SDS011;20737;49.908;8.126;2022-10-31T01:03:21;9.93;;;7.32;;
34491;SDS011;20737;49.908;8.126;2022-10-31T01:05:55;11.70;;;8.18;;
34491;SDS011;20737;49.908;8.126;2022-10-31T01:08:25;10.45;;;7.90;;
34491;SDS011;20737;49.908;8.126;2022-10-31T01:11:04;9.30;;;6.85;;
34491;SDS011;20737;49.908;8.126;2022-10-31T01:13:34;12.23;;;8.45;;
34491;SDS011;20737;49.908;8.126;2022-10-31T01:16:02;11.07;;;8.05;;
34491;SDS011;20737;49.908;8.126;2022-10-31T01:18:30;12.45;;;7.78;;
34491;SDS011;20737;49.908;8.126;2022-10-31T01:20:58;13.55;;;8.00;;
34491;SDS011;20737;49.908;8.126;2022-10-31T01:23:26;13.75;;;8.50;;
34491;SDS011;20737;49.908;8.126;2022-10-31T01:26:00;14.27;;;8.15;;
34491;SDS011;20737;49.908;8.126;2022-10-31T01:28:28;13.68;;;7.82;;
34491;SDS011;20737;49.908;8.126;2022-10-31T01:30:56;12.70;;;8.70;;
34491;SDS011;20737;49.908;8.126;2022-10-31T01:33:26;12.50;;;8.20;;
34491;SDS011;20737;49.908;8.126;2022-10-31T01:35:53;12.13;;;8.55;;
34491;SDS011;20737;49.908;8.126;2022-10-31T01:38:19;16.13;;;9.00;;
34491;SDS011;20737;49.908;8.126;2022-10-31T01:40:47;14.75;;;8.30;;
34491;SDS011;20737;49.908;8.126;2022-10-31T01:43:13;16.30;;;8.68;;
34491;SDS011;20737;49.908;8.126;2022-10-31T01:45:40;13.65;;;8.60;;
34491;SDS011;20737;49.908;8.126;2022-10-31T01:48:12;16.35;;;9.20;;
34491;SDS011;20737;49.908;8.126;2022-10-31T01:50:41;16.42;;;9.35;;
34491;SDS011;20737;49.908;8.126;2022-10-31T01:53:11;14.10;;;8.55;;
34491;SDS011;20737;49.908;8.126;2022-10-31T01:55:39;18.33;;;9.60;;
34491;SDS011;20737;49.908;8.126;2022-10-31T01:58:09;14.10;;;8.93;;
34491;SDS011;20737;49.908;8.126;2022-10-31T02:00:38;14.05;;;8.60;;
34491;SDS011;20737;49.908;8.126;2022-10-31T02:03:06;11.75;;;8.30;;
34491;SDS011;20737;49.908;8.126;2022-10-31T02:05:34;12.40;;;8.10;;
34491;SDS011;20737;49.908;8.126;2022-10-31T02:08:02;13.45;;;8.73;;
34491;SDS011;20737;49.908;8.126;2022-10-31T02:10:34;12.50;;;8.57;;
34491;SDS011;20737;49.908;8.126;2022-10-31T02:13:03;13.00;;;8.75;;
34491;SDS011;20737;49.908;8.126;2022-10-31T02:15:33;10.85;;;7.30;;
34491;SDS011;20737;49.908;8.126;2022-10-31T02:18:02;12.07;;;8.18;;
34491;SDS011;20737;49.908;8.126;2022-10-31T02:20:31;13.30;;;7.97;;
34491;SDS011;20737;49.908;8.126;2022-10-31T02:23:11;11.77;;;7.53;;
34491;SDS011;20737;49.908;8.126;2022-10-31T02:32:28;13.20;;;7.30;;
34491;SDS011;20737;49.908;8.126;2022-10-31T02:35:04;11.38;;;7.68;;
34491;SDS011;20737;49.908;8.126;2022-10-31T02:40:05;12.30;;;7.40;;
34491;SDS011;20737;49.908;8.126;2022-10-31T02:42:39;12.68;;;7.60;;
34491;SDS011;20737;49.908;8.126;2022-10-31T02:45:13;12.07;;;7.68;;
34491;SDS011;20737;49.908;8.126;2022-10-31T02:47:48;11.88;;;8.30;;
34491;SDS011;20737;49.908;8.126;2022-10-31T02:50:19;10.73;;;7.57;;
34491;SDS011;20737;49.908;8.126;2022-10-31T02:52:50;12.70;;;8.48;;
34491;SDS011;20737;49.908;8.126;2022-10-31T02:58:14;10.02;;;7.57;;
34491;SDS011;20737;49.908;8.126;2022-10-31T03:00:45;9.45;;;7.25;;
34491;SDS011;20737;49.908;8.126;2022-10-31T03:03:25;13.07;;;8.15;;
34491;SDS011;20737;49.908;8.126;2022-10-31T03:06:00;9.77;;;7.60;;
34491;SDS011;20737;49.908;8.126;2022-10-31T03:08:34;10.43;;;7.55;;
34491;SDS011;20737;49.908;8.126;2022-10-31T03:11:06;13.52;;;7.88;;
34491;SDS011;20737;49.908;8.126;2022-10-31T03:13:34;8.90;;;7.30;;
34491;SDS011;20737;49.908;8.126;2022-10-31T03:16:07;9.45;;;7.57;;
34491;SDS011;20737;49.908;8.126;2022-10-31T03:18:42;10.90;;;8.40;;
34491;SDS011;20737;49.908;8.126;2022-10-31T03:21:14;12.10;;;7.85;;
34491;SDS011;20737;49.908;8.126;2022-10-31T03:23:44;10.52;;;7.93;;
34491;SDS011;20737;49.908;8.126;2022-10-31T03:26:13;10.80;;;8.05;;
34491;SDS011;20737;49.908;8.126;2022-10-31T03:28:43;13.60;;;8.15;;
34491;SDS011;20737;49.908;8.126;2022-10-31T03:31:15;10.93;;;8.53;;
34491;SDS011;20737;49.908;8.126;2022-10-31T03:33:46;11.00;;;8.50;;
34491;SDS011;20737;49.908;8.126;2022-10-31T03:36:14;15.27;;;9.18;;
34491;SDS011;20737;49.908;8.126;2022-10-31T03:38:42;13.77;;;9.30;;
34491;SDS011;20737;49.908;8.126;2022-10-31T03:41:13;11.77;;;8.02;;
34491;SDS011;20737;49.908;8.126;2022-10-31T03:43:46;10.60;;;8.40;;
34491;SDS011;20737;49.908;8.126;2022-10-31T03:46:18;14.75;;;8.52;;
34491;SDS011;20737;49.908;8.126;2022-10-31T03:48:46;13.40;;;8.32;;
34491;SDS011;20737;49.908;8.126;2022-10-31T03:51:14;13.98;;;8.60;;
34491;SDS011;20737;49.908;8.126;2022-10-31T03:53:50;12.15;;;8.10;;
34491;SDS011;20737;49.908;8.126;2022-10-31T03:56:24;13.85;;;8.70;;
34491;SDS011;20737;49.908;8.126;2022-10-31T03:59:00;12.52;;;7.65;;
34491;SDS011;20737;49.908;8.126;2022-10-31T04:01:30;9.82;;;7.07;;
34491;SDS011;20737;49.908;8.126;2022-10-31T04:04:02;12.38;;;7.80;;
34491;SDS011;20737;49.908;8.126;2022-10-31T04:06:29;19.38;;;8.30;;
34491;SDS011;20737;49.908;8.126;2022-10-31T04:08:59;12.10;;;7.72;;
34491;SDS011;20737;49.908;8.126;2022-10-31T04:11:29;10.90;;;7.47;;
34491;SDS011;20737;49.908;8.126;2022-10-31T04:14:00;9.65;;;7.65;;
34491;SDS011;20737;49.908;8.126;2022-10-31T04:16:28;13.30;;;7.80;;
34491;SDS011;20737;49.908;8.126;2022-10-31T04:18:55;9.48;;;7.53;;
34491;SDS011;20737;49.908;8.126;2022-10-31T04:21:27;12.13;;;8.05;;
34491;SDS011;20737;49.908;8.126;2022-10-31T04:23:55;11.85;;;8.30;;
34491;SDS011;20737;49.908;8.126;2022-10-31T04:26:22;10.95;;;6.72;;
34491;SDS011;20737;49.908;8.126;2022-10-31T04:28:49;10.45;;;6.97;;
34491;SDS011;20737;49.908;8.126;2022-10-31T04:31:16;8.25;;;6.65;;
34491;SDS011;20737;49.908;8.126;2022-10-31T04:33:42;10.00;;;7.18;;
34491;SDS011;20737;49.908;8.126;2022-10-31T04:36:09;9.73;;;7.13;;
34491;SDS011;20737;49.908;8.126;2022-10-31T04:38:37;10.95;;;7.15;;
34491;SDS011;20737;49.908;8.126;2022-10-31T04:41:04;9.52;;;6.68;;
34491;SDS011;20737;49.908;8.126;2022-10-31T04:43:31;9.75;;;6.40;;
34491;SDS011;20737;49.908;8.126;2022-10-31T04:45:58;8.07;;;6.05;;
34491;SDS011;20737;49.908;8.126;2022-10-31T04:48:24;11.02;;;6.43;;
34491;SDS011;20737;49.908;8.126;2022-10-31T04:50:51;7.57;;;6.10;;
34491;SDS011;20737;49.908;8.126;2022-10-31T04:53:18;9.77;;;6.75;;
34491;SDS011;20737;49.908;8.126;2022-10-31T04:55:46;10.07;;;6.72;;
34491;SDS011;20737;49.908;8.126;2022-10-31T04:58:13;9.63;;;6.20;;
34491;SDS011;20737;49.908;8.126;2022-10-31T05:00:39;7.90;;;6.55;;
34491;SDS011;20737;49.908;8.126;2022-10-31T05:03:06;9.77;;;6.43;;
34491;SDS011;20737;49.908;8.126;2022-10-31T05:05:33;8.13;;;6.13;;
34491;SDS011;20737;49.908;8.126;2022-10-31T05:07:59;9.45;;;6.18;;
34491;SDS011;20737;49.908;8.126;2022-10-31T05:10:27;8.48;;;6.78;;
34491;SDS011;20737;49.908;8.126;2022-10-31T05:12:57;8.10;;;6.60;;
34491;SDS011;20737;49.908;8.126;2022-10-31T05:15:26;9.57;;;6.43;;
34491;SDS011;20737;49.908;8.126;2022-10-31T05:17:54;9.15;;;6.47;;
34491;SDS011;20737;49.908;8.126;2022-10-31T05:20:21;9.32;;;6.75;;
34491;SDS011;20737;49.908;8.126;2022-10-31T05:22:50;8.85;;;6.07;;
34491;SDS011;20737;49.908;8.126;2022-10-31T05:25:19;7.93;;;6.18;;
34491;SDS011;20737;49.908;8.126;2022-10-31T05:27:48;8.68;;;6.72;;
34491;SDS011;20737;49.908;8.126;2022-10-31T05:30:19;11.73;;;7.05;;
34491;SDS011;20737;49.908;8.126;2022-10-31T05:32:48;9.75;;;6.97;;
34491;SDS011;20737;49.908;8.126;2022-10-31T05:35:16;9.57;;;6.97;;
34491;SDS011;20737;49.908;8.126;2022-10-31T05:37:45;10.90;;;8.00;;
34491;SDS011;20737;49.908;8.126;2022-10-31T05:40:13;11.77;;;7.50;;
34491;SDS011;20737;49.908;8.126;2022-10-31T05:42:41;13.90;;;7.03;;
34491;SDS011;20737;49.908;8.126;2022-10-31T05:45:09;9.50;;;7.00;;
34491;SDS011;20737;49.908;8.126;2022-10-31T05:47:38;8.60;;;6.93;;
34491;SDS011;20737;49.908;8.126;2022-10-31T05:50:06;10.48;;;7.07;;
34491;SDS011;20737;49.908;8.126;2022-10-31T05:52:33;10.93;;;7.68;;
34491;SDS011;20737;49.908;8.126;2022-10-31T05:55:00;8.02;;;6.05;;
34491;SDS011;20737;49.908;8.126;2022-10-31T05:57:27;9.20;;;7.00;;
34491;SDS011;20737;49.908;8.126;2022-10-31T05:59:54;8.35;;;6.43;;
34491;SDS011;20737;49.908;8.126;2022-10-31T06:02:21;15.15;;;6.72;;
34491;SDS011;20737;49.908;8.126;2022-10-31T06:04:49;9.40;;;6.75;;
34491;SDS011;20737;49.908;8.126;2022-10-31T06:07:16;9.80;;;6.40;;
34491;SDS011;20737;49.908;8.126;2022-10-31T06:09:42;9.35;;;7.07;;
34491;SDS011;20737;49.908;8.126;2022-10-31T06:12:09;8.20;;;6.25;;
34491;SDS011;20737;49.908;8.126;2022-10-31T06:14:36;8.85;;;6.32;;
34491;SDS011;20737;49.908;8.126;2022-10-31T06:17:02;9.43;;;6.25;;
34491;SDS011;20737;49.908;8.126;2022-10-31T06:19:29;8.15;;;6.32;;
34491;SDS011;20737;49.908;8.126;2022-10-31T06:21:57;10.07;;;6.90;;
34491;SDS011;20737;49.908;8.126;2022-10-31T06:24:24;10.48;;;7.45;;
34491;SDS011;20737;49.908;8.126;2022-10-31T06:26:51;12.70;;;7.22;;
34491;SDS011;20737;49.908;8.126;2022-10-31T06:29:17;8.35;;;6.78;;
34491;SDS011;20737;49.908;8.126;2022-10-31T06:31:44;7.97;;;6.45;;
34491;SDS011;20737;49.908;8.126;2022-10-31T06:34:11;11.05;;;6.70;;
34491;SDS011;20737;49.908;8.126;2022-10-31T06:36:37;8.07;;;6.72;;
34491;SDS011;20737;49.908;8.126;2022-10-31T06:39:05;9.05;;;7.63;;
34491;SDS011;20737;49.908;8.126;2022-10-31T06:41:32;10.32;;;7.70;;
34491;SDS011;20737;49.908;8.126;2022-10-31T06:44:01;9.82;;;6.63;;
34491;SDS011;20737;49.908;8.126;2022-10-31T06:46:28;7.40;;;6.32;;
34491;SDS011;20737;49.908;8.126;2022-10-31T06:48:55;7.70;;;6.60;;
34491;SDS011;20737;49.908;8.126;2022-10-31T06:51:21;9.98;;;6.40;;
34491;SDS011;20737;49.908;8.126;2022-10-31T06:53:48;8.82;;;6.20;;
34491;SDS011;20737;49.908;8.126;2022-10-31T06:56:16;8.30;;;5.93;;
34491;SDS011;20737;49.908;8.126;2022-10-31T06:58:43;12.80;;;5.70;;
34491;SDS011;20737;49.908;8.126;2022-10-31T07:01:10;5.35;;;4.75;;
34491;SDS011;20737;49.908;8.126;2022-10-31T07:03:36;6.85;;;5.22;;
34491;SDS011;20737;49.908;8.126;2022-10-31T07:06:03;6.60;;;5.45;;
34491;SDS011;20737;49.908;8.126;2022-10-31T07:08:30;9.63;;;5.22;;
34491;SDS011;20737;49.908;8.126;2022-10-31T07:10:57;8.25;;;5.25;;
34491;SDS011;20737;49.908;8.126;2022-10-31T07:13:25;7.30;;;5.03;;
34491;SDS011;20737;49.908;8.126;2022-10-31T07:15:52;6.95;;;5.00;;
34491;SDS011;20737;49.908;8.126;2022-10-31T07:18:20;10.85;;;4.97;;
34491;SDS011;20737;49.908;8.126;2022-10-31T07:20:48;12.30;;;4.95;;
34491;SDS011;20737;49.908;8.126;2022-10-31T07:23:14;9.93;;;4.85;;
34491;SDS011;20737;49.908;8.126;2022-10-31T07:25:41;7.22;;;5.13;;
34491;SDS011;20737;49.908;8.126;2022-10-31T07:28:08;8.25;;;5.20;;
34491;SDS011;20737;49.908;8.126;2022-10-31T07:30:37;8.60;;;5.32;;
34491;SDS011;20737;49.908;8.126;2022-10-31T07:33:04;6.97;;;4.93;;
34491;SDS011;20737;49.908;8.126;2022-10-31T07:35:31;8.32;;;5.03;;
34491;SDS011;20737;49.908;8.126;2022-10-31T07:38:06;6.18;;;5.10;;
34491;SDS011;20737;49.908;8.126;2022-10-31T07:40:33;9.25;;;4.85;;
34491;SDS011;20737;49.908;8.126;2022-10-31T07:43:00;9.68;;;4.20;;
34491;SDS011;20737;49.908;8.126;2022-10-31T07:45:27;8.32;;;5.35;;
34491;SDS011;20737;49.908;8.126;2022-10-31T07:47:55;8.95;;;4.82;;
34491;SDS011;20737;49.908;8.126;2022-10-31T07:52:57;8.80;;;4.97;;
34491;SDS011;20737;49.908;8.126;2022-10-31T07:55:25;9.25;;;4.43;;
34491;SDS011;20737;49.908;8.126;2022-10-31T07:57:55;6.13;;;4.65;;
34491;SDS011;20737;49.908;8.126;2022-10-31T08:00:22;5.95;;;4.43;;
34491;SDS011;20737;49.908;8.126;2022-10-31T08:02:57;6.20;;;4.30;;
34491;SDS011;20737;49.908;8.126;2022-10-31T08:05:24;7.32;;;3.88;;
34491;SDS011;20737;49.908;8.126;2022-10-31T08:07:51;11.68;;;4.55;;
34491;SDS011;20737;49.908;8.126;2022-10-31T08:10:19;9.13;;;4.50;;
34491;SDS011;20737;49.908;8.126;2022-10-31T08:12:45;8.48;;;4.50;;
34491;SDS011;20737;49.908;8.126;2022-10-31T08:15:12;8.40;;;4.93;;
34491;SDS011;20737;49.908;8.126;2022-10-31T08:17:39;6.35;;;4.70;;
34491;SDS011;20737;49.908;8.126;2022-10-31T08:20:08;7.90;;;4.47;;
34491;SDS011;20737;49.908;8.126;2022-10-31T08:22:35;6.43;;;5.40;;
34491;SDS011;20737;49.908;8.126;2022-10-31T08:25:02;7.15;;;5.18;;
34491;SDS011;20737;49.908;8.126;2022-10-31T08:27:29;12.23;;;5.97;;
34491;SDS011;20737;49.908;8.126;2022-10-31T08:29:56;5.53;;;4.47;;
34491;SDS011;20737;49.908;8.126;2022-10-31T08:32:23;7.07;;;4.90;;
34491;SDS011;20737;49.908;8.126;2022-10-31T08:34:50;9.90;;;5.28;;
34491;SDS011;20737;49.908;8.126;2022-10-31T08:37:18;6.80;;;4.55;;
34491;SDS011;20737;49.908;8.126;2022-10-31T08:39:45;7.10;;;4.82;;
34491;SDS011;20737;49.908;8.126;2022-10-31T08:42:12;6.63;;;5.05;;
34491;SDS011;20737;49.908;8.126;2022-10-31T08:44:38;7.75;;;5.03;;
34491;SDS011;20737;49.908;8.126;2022-10-31T08:47:05;9.35;;;5.63;;
34491;SDS011;20737;49.908;8.126;2022-10-31T08:49:32;8.52;;;5.35;;
34491;SDS011;20737;49.908;8.126;2022-10-31T08:51:59;9.32;;;5.35;;
34491;SDS011;20737;49.908;8.126;2022-10-31T08:54:27;7.18;;;5.32;;
34491;SDS011;20737;49.908;8.126;2022-10-31T08:56:54;11.60;;;5.55;;
34491;SDS011;20737;49.908;8.126;2022-10-31T08:59:21;9.00;;;6.10;;
34491;SDS011;20737;49.908;8.126;2022-10-31T09:01:48;8.23;;;5.68;;
34491;SDS011;20737;49.908;8.126;2022-10-31T09:04:15;9.38;;;5.63;;
34491;SDS011;20737;49.908;8.126;2022-10-31T09:06:41;7.30;;;5.47;;
34491;SDS011;20737;49.908;8.126;2022-10-31T09:09:08;7.63;;;5.82;;
34491;SDS011;20737;49.908;8.126;2022-10-31T09:11:36;8.40;;;5.97;;
34491;SDS011;20737;49.908;8.126;2022-10-31T09:14:03;8.93;;;5.65;;
34491;SDS011;20737;49.908;8.126;2022-10-31T09:16:30;9.10;;;5.43;;
34491;SDS011;20737;49.908;8.126;2022-10-31T09:18:56;14.02;;;6.35;;
34491;SDS011;20737;49.908;8.126;2022-10-31T09:21:23;11.50;;;6.38;;
34491;SDS011;20737;49.908;8.126;2022-10-31T09:23:50;8.95;;;5.45;;
34491;SDS011;20737;49.908;8.126;2022-10-31T09:26:18;9.45;;;5.40;;
34491;SDS011;20737;49.908;8.126;2022-10-31T09:28:46;9.45;;;6.15;;
34491;SDS011;20737;49.908;8.126;2022-10-31T09:31:13;12.82;;;6.35;;
34491;SDS011;20737;49.908;8.126;2022-10-31T09:33:40;11.75;;;5.95;;
34491;SDS011;20737;49.908;8.126;2022-10-31T09:36:07;9.50;;;6.53;;
34491;SDS011;20737;49.908;8.126;2022-10-31T09:38:34;9.07;;;5.63;;
34491;SDS011;20737;49.908;8.126;2022-10-31T09:41:01;8.57;;;6.20;;
34491;SDS011;20737;49.908;8.126;2022-10-31T09:43:43;11.07;;;6.25;;
34491;SDS011;20737;49.908;8.126;2022-10-31T09:46:22;13.98;;;6.57;;
34491;SDS011;20737;49.908;8.126;2022-10-31T09:49:03;10.13;;;6.43;;
34491;SDS011;20737;49.908;8.126;2022-10-31T09:51:57;17.08;;;7.72;;
34491;SDS011;20737;49.908;8.126;2022-10-31T09:54:30;17.40;;;7.03;;
34491;SDS011;20737;49.908;8.126;2022-10-31T09:57:04;10.50;;;6.35;;
34491;SDS011;20737;49.908;8.126;2022-10-31T09:59:36;9.70;;;6.85;;
34491;SDS011;20737;49.908;8.126;2022-10-31T10:02:05;13.52;;;6.95;;
34491;SDS011;20737;49.908;8.126;2022-10-31T10:04:42;16.25;;;7.65;;
34491;SDS011;20737;49.908;8.126;2022-10-31T10:07:14;14.45;;;7.70;;
34491;SDS011;20737;49.908;8.126;2022-10-31T10:09:47;12.95;;;7.28;;
34491;SDS011;20737;49.908;8.126;2022-10-31T10:12:16;10.88;;;7.47;;
34491;SDS011;20737;49.908;8.126;2022-10-31T10:15:16;14.95;;;8.73;;
34491;SDS011;20737;49.908;8.126;2022-10-31T10:17:57;12.80;;;7.82;;
34491;SDS011;20737;49.908;8.126;2022-10-31T10:20:31;14.13;;;7.97;;
34491;SDS011;20737;49.908;8.126;2022-10-31T10:23:11;12.73;;;7.95;;
34491;SDS011;20737;49.908;8.126;2022-10-31T10:25:49;15.45;;;8.90;;
34491;SDS011;20737;49.908;8.126;2022-10-31T10:28:27;12.80;;;7.53;;
34491;SDS011;20737;49.908;8.126;2022-10-31T10:31:05;13.75;;;8.27;;
34491;SDS011;20737;49.908;8.126;2022-10-31T10:36:06;18.50;;;9.50;;
34491;SDS011;20737;49.908;8.126;2022-10-31T10:38:42;12.43;;;8.73;;
34491;SDS011;20737;49.908;8.126;2022-10-31T10:41:17;14.52;;;7.60;;
34491;SDS011;20737;49.908;8.126;2022-10-31T10:43:45;13.90;;;8.10;;
34491;SDS011;20737;49.908;8.126;2022-10-31T10:46:19;14.73;;;7.55;;
34491;SDS011;20737;49.908;8.126;2022-10-31T10:49:12;14.40;;;7.97;;
34491;SDS011;20737;49.908;8.126;2022-10-31T10:51:45;12.68;;;7.70;;
34491;SDS011;20737;49.908;8.126;2022-10-31T10:57:27;15.02;;;8.02;;
34491;SDS011;20737;49.908;8.126;2022-10-31T11:00:15;15.40;;;7.88;;
34491;SDS011;20737;49.908;8.126;2022-10-31T11:02:46;12.52;;;8.20;;
34491;SDS011;20737;49.908;8.126;2022-10-31T11:05:14;13.90;;;7.85;;
34491;SDS011;20737;49.908;8.126;2022-10-31T11:07:48;12.60;;;8.00;;
34491;SDS011;20737;49.908;8.126;2022-10-31T11:10:15;11.32;;;6.93;;
34491;SDS011;20737;49.908;8.126;2022-10-31T11:12:42;10.68;;;6.78;;
34491;SDS011;20737;49.908;8.126;2022-10-31T11:15:17;9.35;;;5.65;;
34491;SDS011;20737;49.908;8.126;2022-10-31T11:17:47;12.55;;;6.65;;
34491;SDS011;20737;49.908;8.126;2022-10-31T11:20:24;9.10;;;7.03;;
34491;SDS011;20737;49.908;8.126;2022-10-31T11:23:00;8.20;;;6.32;;
34491;SDS011;20737;49.908;8.126;2022-10-31T11:25:30;11.48;;;6.47;;
34491;SDS011;20737;49.908;8.126;2022-10-31T11:28:00;14.52;;;7.05;;
34491;SDS011;20737;49.908;8.126;2022-10-31T11:30:29;11.27;;;6.13;;
34491;SDS011;20737;49.908;8.126;2022-10-31T11:32:58;10.68;;;6.05;;
34491;SDS011;20737;49.908;8.126;2022-10-31T11:35:25;13.45;;;6.90;;
34491;SDS011;20737;49.908;8.126;2022-10-31T11:37:52;11.27;;;6.95;;
34491;SDS011;20737;49.908;8.126;2022-10-31T11:40:21;15.45;;;7.50;;
34491;SDS011;20737;49.908;8.126;2022-10-31T11:42:50;11.63;;;6.85;;
34491;SDS011;20737;49.908;8.126;2022-10-31T11:45:19;10.65;;;6.82;;
34491;SDS011;20737;49.908;8.126;2022-10-31T11:47:56;11.85;;;6.75;;
34491;SDS011;20737;49.908;8.126;2022-10-31T11:50:27;14.27;;;6.85;;
34491;SDS011;20737;49.908;8.126;2022-10-31T11:52:59;11.07;;;6.78;;
34491;SDS011;20737;49.908;8.126;2022-10-31T11:55:31;14.05;;;7.47;;
34491;SDS011;20737;49.908;8.126;2022-10-31T11:57:59;11.38;;;7.03;;
34491;SDS011;20737;49.908;8.126;2022-10-31T12:00:27;9.88;;;6.88;;
34491;SDS011;20737;49.908;8.126;2022-10-31T12:03:11;10.75;;;6.22;;
34491;SDS011;20737;49.908;8.126;2022-10-31T12:05:44;8.95;;;6.57;;
34491;SDS011;20737;49.908;8.126;2022-10-31T12:08:13;14.98;;;6.93;;
34491;SDS011;20737;49.908;8.126;2022-10-31T12:10:43;12.57;;;6.47;;
34491;SDS011;20737;49.908;8.126;2022-10-31T12:13:24;8.50;;;6.22;;
34491;SDS011;20737;49.908;8.126;2022-10-31T12:15:59;12.55;;;6.80;;
34491;SDS011;20737;49.908;8.126;2022-10-31T12:18:36;12.05;;;6.65;;
34491;SDS011;20737;49.908;8.126;2022-10-31T12:21:20;12.30;;;6.82;;
34491;SDS011;20737;49.908;8.126;2022-10-31T12:23:57;8.77;;;6.10;;
34491;SDS011;20737;49.908;8.126;2022-10-31T12:26:32;12.93;;;6.70;;
34491;SDS011;20737;49.908;8.126;2022-10-31T12:29:08;10.00;;;6.25;;
34491;SDS011;20737;49.908;8.126;2022-10-31T12:31:51;16.30;;;6.72;;
34491;SDS011;20737;49.908;8.126;2022-10-31T12:34:37;13.90;;;6.38;;
34491;SDS011;20737;49.908;8.126;2022-10-31T12:37:17;13.13;;;6.75;;
34491;SDS011;20737;49.908;8.126;2022-10-31T12:39:53;9.55;;;6.43;;
34491;SDS011;20737;49.908;8.126;2022-10-31T12:42:34;10.75;;;6.65;;
34491;SDS011;20737;49.908;8.126;2022-10-31T12:45:27;12.13;;;6.75;;
34491;SDS011;20737;49.908;8.126;2022-10-31T12:48:06;11.55;;;6.55;;
34491;SDS011;20737;49.908;8.126;2022-10-31T12:51:01;13.75;;;6.60;;
34491;SDS011;20737;49.908;8.126;2022-10-31T12:53:38;10.05;;;5.57;;
34491;SDS011;20737;49.908;8.126;2022-10-31T12:56:20;10.63;;;6.38;;
34491;SDS011;20737;49.908;8.126;2022-10-31T12:59:02;11.00;;;6.45;;
34491;SDS011;20737;49.908;8.126;2022-10-31T13:01:35;12.05;;;7.07;;
34491;SDS011;20737;49.908;8.126;2022-10-31T13:04:10;13.38;;;6.70;;
34491;SDS011;20737;49.908;8.126;2022-10-31T13:06:44;11.75;;;6.60;;
34491;SDS011;20737;49.908;8.126;2022-10-31T13:09:15;15.73;;;7.37;;
34491;SDS011;20737;49.908;8.126;2022-10-31T13:11:46;12.00;;;6.60;;
34491;SDS011;20737;49.908;8.126;2022-10-31T13:14:18;13.65;;;6.95;;
34491;SDS011;20737;49.908;8.126;2022-10-31T13:16:50;11.52;;;7.60;;
34491;SDS011;20737;49.908;8.126;2022-10-31T13:19:20;12.65;;;7.03;;
34491;SDS011;20737;49.908;8.126;2022-10-31T13:21:53;13.48;;;6.68;;
34491;SDS011;20737;49.908;8.126;2022-10-31T13:24:26;12.15;;;7.03;;
34491;SDS011;20737;49.908;8.126;2022-10-31T13:26:59;15.40;;;7.05;;
34491;SDS011;20737;49.908;8.126;2022-10-31T13:29:30;11.52;;;6.03;;
34491;SDS011;20737;49.908;8.126;2022-10-31T13:31:59;9.98;;;6.47;;
34491;SDS011;20737;49.908;8.126;2022-10-31T13:34:30;14.55;;;7.10;;
34491;SDS011;20737;49.908;8.126;2022-10-31T13:37:06;11.77;;;6.45;;
34491;SDS011;20737;49.908;8.126;2022-10-31T13:39:44;12.55;;;7.70;;
34491;SDS011;20737;49.908;8.126;2022-10-31T13:42:21;12.57;;;7.25;;
34491;SDS011;20737;49.908;8.126;2022-10-31T13:45:06;14.38;;;6.38;;
34491;SDS011;20737;49.908;8.126;2022-10-31T13:47:37;11.43;;;6.95;;
34491;SDS011;20737;49.908;8.126;2022-10-31T13:50:05;12.77;;;6.78;;
34491;SDS011;20737;49.908;8.126;2022-10-31T13:52:45;11.23;;;6.28;;
34491;SDS011;20737;49.908;8.126;2022-10-31T13:58:03;14.95;;;7.25;;
34491;SDS011;20737;49.908;8.126;2022-10-31T14:00:30;12.25;;;7.18;;
34491;SDS011;20737;49.908;8.126;2022-10-31T14:02:59;16.48;;;7.75;;
34491;SDS011;20737;49.908;8.126;2022-10-31T14:05:27;13.75;;;6.95;;
34491;SDS011;20737;49.908;8.126;2022-10-31T14:07:59;13.80;;;8.32;;
34491;SDS011;20737;49.908;8.126;2022-10-31T14:10:29;13.98;;;7.95;;
34491;SDS011;20737;49.908;8.126;2022-10-31T14:13:03;12.88;;;7.82;;
34491;SDS011;20737;49.908;8.126;2022-10-31T14:15:31;13.18;;;7.30;;
34491;SDS011;20737;49.908;8.126;2022-10-31T14:17:59;13.60;;;7.30;;
34491;SDS011;20737;49.908;8.126;2022-10-31T14:20:32;12.10;;;6.97;;
34491;SDS011;20737;49.908;8.126;2022-10-31T14:23:25;11.25;;;7.00;;
34491;SDS011;20737;49.908;8.126;2022-10-31T14:26:16;11.55;;;6.85;;
34491;SDS011;20737;49.908;8.126;2022-10-31T14:28:56;9.88;;;6.63;;
34491;SDS011;20737;49.908;8.126;2022-10-31T14:31:27;15.90;;;7.18;;
34491;SDS011;20737;49.908;8.126;2022-10-31T14:34:03;12.20;;;7.00;;
34491;SDS011;20737;49.908;8.126;2022-10-31T14:36:46;14.95;;;7.13;;
34491;SDS011;20737;49.908;8.126;2022-10-31T14:39:24;12.80;;;6.88;;
34491;SDS011;20737;49.908;8.126;2022-10-31T14:41:57;8.00;;;5.45;;
34491;SDS011;20737;49.908;8.126;2022-10-31T14:47:29;10.30;;;6.60;;
34491;SDS011;20737;49.908;8.126;2022-10-31T14:50:10;9.85;;;5.90;;
34491;SDS011;20737;49.908;8.126;2022-10-31T14:52:57;12.80;;;5.97;;
34491;SDS011;20737;49.908;8.126;2022-10-31T14:55:28;9.20;;;5.70;;
34491;SDS011;20737;49.908;8.126;2022-10-31T14:57:57;12.55;;;5.47;;
34491;SDS011;20737;49.908;8.126;2022-10-31T15:00:26;14.02;;;5.68;;
34491;SDS011;20737;49.908;8.126;2022-10-31T15:02:58;12.52;;;6.47;;
34491;SDS011;20737;49.908;8.126;2022-10-31T15:05:32;12.07;;;5.47;;
34491;SDS011;20737;49.908;8.126;2022-10-31T15:08:12;8.23;;;5.97;;
34491;SDS011;20737;49.908;8.126;2022-10-31T15:10:52;11.75;;;6.35;;
34491;SDS011;20737;49.908;8.126;2022-10-31T15:13:20;9.85;;;5.93;;
34491;SDS011;20737;49.908;8.126;2022-10-31T15:15:48;13.60;;;6.63;;
34491;SDS011;20737;49.908;8.126;2022-10-31T15:18:17;11.23;;;6.43;;
34491;SDS011;20737;49.908;8.126;2022-10-31T15:20:47;13.18;;;7.22;;
34491;SDS011;20737;49.908;8.126;2022-10-31T15:23:16;13.07;;;5.95;;
34491;SDS011;20737;49.908;8.126;2022-10-31T15:25:47;10.73;;;7.25;;